createdAt,value
2022-08-19T00:04:30.799Z,99077.13
2022-08-19T00:09:35.560Z,99083.03
2022-08-19T00:14:39.100Z,99081.06
2022-08-19T00:19:42.455Z,99079.91
2022-08-19T00:24:49.570Z,99082.44
2022-08-19T00:29:53.809Z,99075.13
2022-08-19T00:34:56.625Z,99071.78
2022-08-19T00:40:00.832Z,99092.25
2022-08-19T00:45:04.641Z,99081.22
2022-08-19T00:50:08.443Z,99074.06
2022-08-19T00:55:15.417Z,99064.53
2022-08-19T01:00:20.619Z,99066.44
2022-08-19T01:05:26.140Z,99082.06
2022-08-19T01:10:36.695Z,99075.72
2022-08-19T01:15:43.880Z,99079.81
2022-08-19T01:20:47.067Z,99078.09
2022-08-19T01:25:53.152Z,99071.53
2022-08-19T01:30:57.186Z,99066.00
2022-08-19T01:36:06.555Z,99064.88
2022-08-19T01:41:11.254Z,99062.59
2022-08-19T01:46:14.272Z,99052.31
2022-08-19T01:51:17.282Z,99065.81
2022-08-19T01:56:21.792Z,99047.66
2022-08-19T02:01:24.577Z,99048.94
2022-08-19T02:06:34.205Z,99048.09
2022-08-19T02:11:39.990Z,99042.84
2022-08-19T02:16:42.755Z,99056.25
2022-08-19T02:21:45.555Z,99058.88
2022-08-19T02:26:49.547Z,99057.78
2022-08-19T02:31:52.590Z,99055.09
2022-08-19T02:36:55.296Z,99050.88
2022-08-19T02:42:00.646Z,99066.03
2022-08-19T02:47:03.799Z,99065.22
2022-08-19T02:52:06.631Z,99064.16
2022-08-19T02:57:10.714Z,99069.47
2022-08-19T03:02:13.410Z,99066.16
2022-08-19T03:07:17.442Z,99067.81
2022-08-19T03:12:21.488Z,99066.88
2022-08-19T03:17:24.234Z,99059.63
2022-08-19T03:22:27.364Z,99060.53
2022-08-19T03:27:34.332Z,99064.19
2022-08-19T03:32:37.541Z,99074.53
2022-08-19T03:37:48.174Z,99077.81
2022-08-19T03:42:52.226Z,99081.91
2022-08-19T03:47:54.954Z,99076.75
2022-08-19T03:52:57.683Z,99080.84
2022-08-19T03:58:02.023Z,99076.28
2022-08-19T04:03:04.882Z,99081.13
2022-08-19T04:08:10.807Z,99081.22
2022-08-19T04:13:18.772Z,99084.38
2022-08-19T04:18:21.472Z,99075.72
2022-08-19T04:23:24.482Z,99092.94
2022-08-19T04:28:28.635Z,99101.91
2022-08-19T04:33:31.346Z,99095.44
2022-08-19T04:38:34.085Z,99101.53
2022-08-19T04:43:40.420Z,99104.38
2022-08-19T04:48:49.562Z,99115.38
2022-08-19T04:53:53.333Z,99113.03
2022-08-19T04:58:58.152Z,99123.13
2022-08-19T05:04:01.694Z,99130.50
2022-08-19T05:09:05.512Z,99128.53
2022-08-19T05:14:13.308Z,99133.22
2022-08-19T05:19:33.762Z,99118.31
2022-08-19T05:24:44.138Z,99128.66
2022-08-19T05:29:55.536Z,99137.94
2022-08-19T05:34:58.495Z,99129.84
2022-08-19T05:40:01.274Z,99138.63
2022-08-19T05:45:06.383Z,99142.16
2022-08-19T05:50:09.946Z,99153.34
2022-08-19T05:55:12.974Z,99145.69
2022-08-19T06:00:22.629Z,99143.91
2022-08-19T06:05:27.289Z,99149.91
2022-08-19T06:10:30.974Z,99143.44
2022-08-19T06:15:35.791Z,99149.06
2022-08-19T06:20:55.049Z,99142.78
2022-08-19T06:25:58.510Z,99139.59
2022-08-19T06:31:08.300Z,99143.97
2022-08-19T06:36:18.632Z,99139.22
2022-08-19T06:41:21.475Z,99134.75
2022-08-19T06:46:25.663Z,99143.09
2022-08-19T06:51:29.978Z,99141.13
2022-08-19T06:56:35.704Z,99144.31
2022-08-19T07:01:41.779Z,99152.59
2022-08-19T07:06:45.142Z,99152.53
2022-08-19T07:11:58.067Z,99153.19
2022-08-19T07:17:02.159Z,99161.94
2022-08-19T07:22:07.115Z,99162.09
2022-08-19T07:27:15.690Z,99175.31
2022-08-19T07:32:19.765Z,99183.50
2022-08-19T07:37:22.501Z,99182.69
2022-08-19T07:42:25.842Z,99194.19
2022-08-19T07:47:47.655Z,99197.47
2022-08-19T07:52:53.242Z,99207.16
2022-08-19T07:57:56.040Z,99207.72
2022-08-19T08:03:00.093Z,99207.47
2022-08-19T08:08:22.704Z,99218.06
2022-08-19T08:13:30.618Z,99223.72
2022-08-19T08:18:42.257Z,99236.78
2022-08-19T08:23:45.042Z,99230.22
2022-08-19T08:28:49.513Z,99243.78
2022-08-19T08:33:53.925Z,99234.75
2022-08-19T08:44:04.927Z,99236.19
2022-08-19T08:49:21.322Z,99234.31
2022-08-19T08:54:26.126Z,99237.69
2022-08-19T08:59:33.244Z,99226.97
2022-08-19T09:04:37.860Z,99220.06
2022-08-19T09:09:44.408Z,99226.31
2022-08-19T09:14:51.744Z,99232.69
2022-08-19T09:19:58.845Z,99223.97
2022-08-19T09:25:01.792Z,99217.72
2022-08-19T09:30:05.469Z,99225.06
2022-08-19T09:35:10.240Z,99218.94
2022-08-19T09:40:13.926Z,99218.38
2022-08-19T09:45:22.446Z,99219.88
2022-08-19T09:50:26.814Z,99217.34
2022-08-19T09:55:31.927Z,99207.31
2022-08-19T10:00:35.256Z,99218.75
2022-08-19T10:05:56.208Z,99217.81
2022-08-19T10:10:59.656Z,99214.06
2022-08-19T10:16:25.985Z,99209.97
2022-08-19T10:21:36.146Z,99217.81
2022-08-19T10:26:42.978Z,99216.53
2022-08-19T10:32:01.983Z,99216.03
2022-08-19T10:37:10.848Z,99221.53
2022-08-19T10:42:17.861Z,99223.16
2022-08-19T10:47:24.700Z,99225.06
2022-08-19T10:52:38.975Z,99199.81
2022-08-19T10:58:01.241Z,99202.97
2022-08-19T11:03:04.752Z,99207.09
2022-08-19T11:08:22.260Z,99200.63
2022-08-19T11:13:26.545Z,99197.91
2022-08-19T11:18:29.569Z,99196.28
2022-08-19T11:23:33.657Z,99196.28
2022-08-19T11:28:36.461Z,99200.91
2022-08-19T11:33:39.395Z,99183.84
2022-08-19T11:38:43.597Z,99184.09
2022-08-19T11:43:46.511Z,99178.41
2022-08-19T11:48:50.637Z,99183.28
2022-08-19T11:53:55.258Z,99187.06
2022-08-19T11:58:58.592Z,99180.63
2022-08-19T12:04:01.736Z,99177.97
2022-08-19T12:09:08.187Z,99166.63
2022-08-19T12:14:14.968Z,99161.19
2022-08-19T12:19:21.754Z,99175.81
2022-08-19T12:24:26.805Z,99170.09
2022-08-19T12:29:30.650Z,99174.03
2022-08-19T12:34:34.291Z,99169.72
2022-08-19T12:39:41.082Z,99163.53
2022-08-19T12:44:44.929Z,99158.09
2022-08-19T12:49:53.791Z,99156.50
2022-08-19T12:54:59.579Z,99156.19
2022-08-19T13:00:07.745Z,99146.16
2022-08-19T13:05:12.498Z,99150.00
2022-08-19T13:10:18.768Z,99145.16
2022-08-19T13:15:24.033Z,99140.78
2022-08-19T13:20:27.690Z,99130.25
2022-08-19T13:25:31.907Z,99125.63
2022-08-19T13:30:52.719Z,99129.91
2022-08-19T13:36:01.321Z,99123.97
2022-08-19T13:41:13.292Z,99125.66
2022-08-19T13:46:17.600Z,99104.53
2022-08-19T13:51:20.348Z,99107.78
2022-08-19T13:56:26.531Z,99098.84
2022-08-19T14:01:30.334Z,99089.31
2022-08-19T14:06:33.002Z,99091.53
2022-08-19T14:11:37.052Z,99095.38
2022-08-19T14:16:39.973Z,99107.00
2022-08-19T14:21:42.969Z,99098.09
2022-08-19T14:26:47.135Z,99106.22
2022-08-19T14:31:49.876Z,99115.47
2022-08-19T14:36:52.612Z,99113.03
2022-08-19T14:41:57.156Z,99110.63
2022-08-19T14:46:59.809Z,99124.47
2022-08-19T14:52:03.990Z,99120.94
2022-08-19T14:57:07.977Z,99117.44
2022-08-19T15:02:33.660Z,99122.34
2022-08-19T15:07:33.556Z,99129.66
2022-08-19T15:12:37.985Z,99121.00
2022-08-19T15:17:45.219Z,99118.56
2022-08-19T15:22:48.999Z,99135.13
2022-08-19T15:27:53.743Z,99128.91
2022-08-19T15:32:57.287Z,99139.50
2022-08-19T15:37:59.969Z,99138.94
2022-08-19T15:43:04.525Z,99144.66
2022-08-19T15:48:07.183Z,99141.72
2022-08-19T15:53:11.713Z,99144.41
2022-08-19T15:58:34.022Z,99143.91
2022-08-19T16:03:54.356Z,99144.47
2022-08-19T16:08:59.227Z,99144.47
2022-08-19T16:14:04.038Z,99149.38
2022-08-19T16:19:10.623Z,99153.16
2022-08-19T16:24:16.744Z,99157.75
2022-08-19T16:29:34.102Z,99167.28
2022-08-19T16:34:38.918Z,99166.19
2022-08-19T16:39:44.309Z,99172.72
2022-08-19T16:44:48.452Z,99161.56
2022-08-19T16:49:53.976Z,99162.94
2022-08-19T16:54:58.084Z,99158.09
2022-08-19T17:00:05.161Z,99170.00
2022-08-19T17:05:10.013Z,99168.09
2022-08-19T17:10:12.667Z,99161.88
2022-08-19T17:15:16.656Z,99165.38
2022-08-19T17:20:19.603Z,99161.88
2022-08-19T17:25:22.263Z,99162.44
2022-08-19T17:30:26.768Z,99155.94
2022-08-19T17:35:29.467Z,99155.94
2022-08-19T17:40:32.395Z,99156.78
2022-08-19T17:45:36.661Z,99159.72
2022-08-19T17:50:40.301Z,99153.47
2022-08-19T17:55:42.948Z,99152.72
2022-08-19T18:00:55.359Z,99154.59
2022-08-19T18:05:58.529Z,99150.81
2022-08-19T18:11:01.224Z,99153.53
2022-08-19T18:16:06.923Z,99154.91
2022-08-19T18:21:09.919Z,99159.00
2022-08-19T18:26:12.683Z,99153.56
2022-08-19T18:31:17.039Z,99156.00
2022-08-19T18:36:37.366Z,99160.38
2022-08-19T18:42:01.008Z,99159.28
2022-08-19T18:47:22.619Z,99159.28
2022-08-19T18:52:27.161Z,99165.28
2022-08-19T18:57:29.925Z,99174.22
2022-08-19T19:02:38.437Z,99173.44
2022-08-19T19:07:41.832Z,99187.59
2022-08-19T19:12:45.491Z,99189.22
2022-08-19T19:17:50.053Z,99198.47
2022-08-19T19:22:52.821Z,99204.47
2022-08-19T19:27:59.624Z,99208.25
2022-08-19T19:33:03.713Z,99215.31
2022-08-19T19:38:06.436Z,99207.69
2022-08-19T19:43:09.295Z,99216.31
2022-08-19T19:48:16.239Z,99225.59
2022-08-19T19:53:18.897Z,99229.88
2022-08-19T19:58:28.525Z,99220.56
2022-08-19T20:03:33.315Z,99228.63
2022-08-19T20:08:54.077Z,99243.50
2022-08-19T20:13:56.768Z,99248.56
2022-08-19T20:19:03.465Z,99248.00
2022-08-19T20:24:09.173Z,99243.03
2022-08-19T20:29:37.996Z,99255.47
2022-08-19T20:34:37.236Z,99256.00
2022-08-19T20:39:40.005Z,99260.28
2022-08-19T20:44:42.771Z,99271.59
2022-08-19T20:49:47.257Z,99267.75
2022-08-19T20:54:50.025Z,99276.38
2022-08-19T20:59:52.705Z,99274.31
2022-08-19T21:04:56.726Z,99277.66
2022-08-19T21:10:02.978Z,99280.03
2022-08-19T21:15:08.379Z,99280.88
2022-08-19T21:20:12.683Z,99279.56
2022-08-19T21:25:17.117Z,99278.72
2022-08-19T21:30:19.983Z,99271.47
2022-08-19T21:35:24.569Z,99277.91
2022-08-19T21:40:28.013Z,99277.19
2022-08-19T21:45:30.740Z,99273.91
2022-08-19T21:50:35.131Z,99277.72
2022-08-19T21:55:38.270Z,99285.53
2022-08-19T22:00:41.147Z,99288.56
2022-08-19T22:05:45.793Z,99284.19
2022-08-19T22:10:49.504Z,99290.19
2022-08-19T22:15:52.545Z,99281.81
2022-08-19T22:20:56.619Z,99282.56
2022-08-19T22:25:59.252Z,99287.38
2022-08-19T22:31:02.396Z,99285.28
2022-08-19T22:36:08.546Z,99287.75
2022-08-19T22:41:11.801Z,99294.75
2022-08-19T22:46:17.429Z,99294.75
2022-08-19T22:51:39.383Z,99303.16
2022-08-19T22:56:43.273Z,99298.22
2022-08-19T23:01:46.992Z,99292.78
2022-08-19T23:06:52.867Z,99290.72
2022-08-19T23:11:55.544Z,99287.50
2022-08-19T23:16:59.257Z,99291.97
2022-08-19T23:22:05.041Z,99289.50
2022-08-19T23:27:25.186Z,99287.31
2022-08-19T23:32:27.923Z,99284.28
2022-08-19T23:37:32.043Z,99284.94
2022-08-19T23:42:35.342Z,99281.34
2022-08-19T23:47:37.978Z,99283.41
2022-08-19T23:52:47.668Z,99282.38
2022-08-19T23:57:50.458Z,99286.38
